NCAR-RAP Real-Time Weather Data

Output produced by METARs form (31 May 2020  14:42 UTC)
found at http://weather.rap.ucar.edu/surface/
 
RJKA 311000Z 28006KT 250V310 9999 FEW020 BKN/// 27/23 Q1009
 
ROAH 311430Z 19009KT 9999 VCSH FEW007 SCT015 BKN020 27/26 Q1012 RMK 1ST007 3CU015 5CU020 A2989
 
RODN 311436Z AUTO 21005KT 10SM -DZ BKN009 OVC014 26/25 A2989 RMK AO2 RAE09DZB09E24RAB24E34DZB34 CIG 009V011 SLP127 $
 
ROIG 311106Z 05006KT 9999 -SHRA FEW003 SCT009 BKN024 26/26 Q1010 RMK 1ST003 4CU009 7CU024 A2985
 
ROMY 311100Z 26003KT 210V310 9999 -SHRA FEW006 SCT009 BKN011 FEW020TCU 27/26 Q1010
 
RORS 311000Z 29003KT 240V340 9999 -SHRA FEW008 SCT010 BKN020 26/26 Q1009